DESBT EDDH-EDDW
Flight info
| Callsign | DESBT |
|---|---|
| Flight time | 0h 37m |
| Altitude | 6000 |
| Route | WSN5G WSN L23 GIBMA GIBMA2P |
| Aircraft | PA24/L-SDGRY/S |
Departure
| Time | 2026-05-06 17:10 |
|---|---|
| Airport | Hamburg Helmut Schmidt Airport (EDDH) |
Arrival
| Time | 2026-05-06 17:47 |
|---|---|
| Airport | Bremen Airport (EDDW) |
| Time | Latitude | Longitude | Altitude | Speed | Heading |
|---|---|---|---|---|---|
| 2026-05-06 16:53 | 53.62622 | 9.98807 | 41 ft | 0 kts | 63° |
| 2026-05-06 16:54 | 53.62618 | 9.98795 | 41 ft | 0 kts | 63° |
| 2026-05-06 17:05 | 53.62622 | 9.98799 | 41 ft | 4 kts | 355° |
| 2026-05-06 17:05 | 53.62611 | 9.98733 | 41 ft | 10 kts | 275° |
| 2026-05-06 17:05 | 53.62689 | 9.98662 | 41 ft | 16 kts | 338° |
| 2026-05-06 17:05 | 53.62776 | 9.98722 | 41 ft | 16 kts | 46° |
| 2026-05-06 17:06 | 53.62850 | 9.98874 | 41 ft | 19 kts | 51° |
| 2026-05-06 17:06 | 53.62953 | 9.99086 | 41 ft | 26 kts | 51° |
| 2026-05-06 17:06 | 53.63071 | 9.99278 | 41 ft | 20 kts | 21° |
| 2026-05-06 17:06 | 53.63145 | 9.99317 | 41 ft | 0 kts | 17° |
| 2026-05-06 17:08 | 53.63196 | 9.99343 | 41 ft | 24 kts | 17° |
| 2026-05-06 17:09 | 53.63449 | 9.99239 | 42 ft | 61 kts | 339° |
| 2026-05-06 17:09 | 53.63925 | 9.98842 | 204 ft | 85 kts | 340° |
| 2026-05-06 17:09 | 53.64496 | 9.98364 | 372 ft | 103 kts | 338° |
| 2026-05-06 17:09 | 53.65154 | 9.97793 | 589 ft | 107 kts | 336° |
| 2026-05-06 17:10 | 53.65816 | 9.97223 | 858 ft | 107 kts | 337° |
| 2026-05-06 17:10 | 53.66483 | 9.96651 | 1142 ft | 108 kts | 338° |
| 2026-05-06 17:10 | 53.67209 | 9.96030 | 1240 ft | 122 kts | 338° |
| 2026-05-06 17:10 | 53.67968 | 9.95348 | 1449 ft | 129 kts | 336° |
| 2026-05-06 17:11 | 53.68786 | 9.94601 | 1668 ft | 138 kts | 336° |
| 2026-05-06 17:11 | 53.69643 | 9.93823 | 1878 ft | 141 kts | 336° |
| 2026-05-06 17:11 | 53.70515 | 9.93033 | 2088 ft | 143 kts | 336° |
| 2026-05-06 17:11 | 53.71391 | 9.92242 | 2300 ft | 142 kts | 336° |
| 2026-05-06 17:12 | 53.72262 | 9.91453 | 2509 ft | 142 kts | 336° |
| 2026-05-06 17:12 | 53.73131 | 9.90666 | 2709 ft | 141 kts | 336° |
| 2026-05-06 17:12 | 53.73998 | 9.89884 | 2921 ft | 141 kts | 336° |
| 2026-05-06 17:12 | 53.74865 | 9.89101 | 3124 ft | 141 kts | 336° |
| 2026-05-06 17:13 | 53.75724 | 9.88321 | 3324 ft | 139 kts | 336° |
| 2026-05-06 17:13 | 53.76549 | 9.87571 | 3520 ft | 131 kts | 336° |
| 2026-05-06 17:13 | 53.77334 | 9.86852 | 3707 ft | 126 kts | 336° |
| 2026-05-06 17:13 | 53.78085 | 9.86164 | 3932 ft | 121 kts | 335° |
| 2026-05-06 17:14 | 53.78816 | 9.85499 | 4186 ft | 118 kts | 336° |
| 2026-05-06 17:14 | 53.79525 | 9.84857 | 4428 ft | 116 kts | 335° |
| 2026-05-06 17:14 | 53.80242 | 9.84215 | 4688 ft | 114 kts | 335° |
| 2026-05-06 17:14 | 53.80913 | 9.83549 | 4924 ft | 115 kts | 319° |
| 2026-05-06 17:15 | 53.81015 | 9.82256 | 5146 ft | 122 kts | 242° |
| 2026-05-06 17:15 | 53.80426 | 9.81240 | 5404 ft | 120 kts | 224° |
| 2026-05-06 17:15 | 53.79826 | 9.80265 | 5666 ft | 119 kts | 225° |
| 2026-05-06 17:15 | 53.79230 | 9.79311 | 5923 ft | 117 kts | 225° |
| 2026-05-06 17:16 | 53.78609 | 9.78318 | 5998 ft | 131 kts | 225° |
| 2026-05-06 17:16 | 53.77921 | 9.77215 | 6008 ft | 141 kts | 225° |
| 2026-05-06 17:16 | 53.77190 | 9.76043 | 6005 ft | 148 kts | 225° |
| 2026-05-06 17:16 | 53.76435 | 9.74837 | 6004 ft | 151 kts | 225° |
| 2026-05-06 17:17 | 53.75668 | 9.73610 | 6005 ft | 152 kts | 225° |
| 2026-05-06 17:17 | 53.74896 | 9.72376 | 6006 ft | 153 kts | 225° |
| 2026-05-06 17:17 | 53.74116 | 9.71145 | 6003 ft | 154 kts | 223° |
| 2026-05-06 17:17 | 53.73308 | 9.69955 | 6002 ft | 154 kts | 222° |
| 2026-05-06 17:18 | 53.72501 | 9.68761 | 6004 ft | 154 kts | 223° |
| 2026-05-06 17:18 | 53.71698 | 9.67563 | 6007 ft | 154 kts | 223° |
| 2026-05-06 17:18 | 53.70899 | 9.66368 | 6000 ft | 154 kts | 223° |
| 2026-05-06 17:18 | 53.70104 | 9.65180 | 5998 ft | 152 kts | 223° |
| 2026-05-06 17:19 | 53.69309 | 9.63992 | 5999 ft | 153 kts | 223° |
| 2026-05-06 17:19 | 53.68511 | 9.62800 | 5999 ft | 154 kts | 223° |
| 2026-05-06 17:19 | 53.67709 | 9.61604 | 6003 ft | 154 kts | 223° |
| 2026-05-06 17:19 | 53.66906 | 9.60406 | 6000 ft | 154 kts | 223° |
| 2026-05-06 17:20 | 53.66102 | 9.59207 | 6003 ft | 154 kts | 223° |
| 2026-05-06 17:20 | 53.65300 | 9.57994 | 6001 ft | 154 kts | 226° |
| 2026-05-06 17:20 | 53.64657 | 9.56558 | 5997 ft | 154 kts | 237° |
| 2026-05-06 17:20 | 53.64035 | 9.55088 | 5995 ft | 154 kts | 236° |
| 2026-05-06 17:21 | 53.63407 | 9.53623 | 5998 ft | 154 kts | 236° |
| 2026-05-06 17:21 | 53.62782 | 9.52162 | 6000 ft | 154 kts | 236° |
| 2026-05-06 17:21 | 53.62153 | 9.50696 | 5999 ft | 155 kts | 235° |
| 2026-05-06 17:21 | 53.61523 | 9.49227 | 6000 ft | 155 kts | 236° |
| 2026-05-06 17:22 | 53.60892 | 9.47755 | 6002 ft | 155 kts | 236° |
| 2026-05-06 17:22 | 53.60261 | 9.46285 | 6001 ft | 155 kts | 235° |
| 2026-05-06 17:22 | 53.59630 | 9.44815 | 6003 ft | 155 kts | 235° |
| 2026-05-06 17:22 | 53.58998 | 9.43346 | 6001 ft | 155 kts | 235° |
| 2026-05-06 17:23 | 53.58367 | 9.41878 | 6000 ft | 155 kts | 235° |
| 2026-05-06 17:23 | 53.57733 | 9.40405 | 6004 ft | 156 kts | 235° |
| 2026-05-06 17:23 | 53.57098 | 9.38929 | 6004 ft | 156 kts | 235° |
| 2026-05-06 17:23 | 53.56462 | 9.37454 | 6004 ft | 156 kts | 235° |
| 2026-05-06 17:24 | 53.55825 | 9.35976 | 6004 ft | 156 kts | 235° |
| 2026-05-06 17:24 | 53.55187 | 9.34496 | 6003 ft | 156 kts | 235° |
| 2026-05-06 17:24 | 53.54547 | 9.33014 | 6004 ft | 157 kts | 235° |
| 2026-05-06 17:24 | 53.53907 | 9.31531 | 6003 ft | 157 kts | 234° |
| 2026-05-06 17:25 | 53.53266 | 9.30048 | 6003 ft | 157 kts | 235° |
| 2026-05-06 17:25 | 53.52624 | 9.28562 | 6002 ft | 157 kts | 235° |
| 2026-05-06 17:25 | 53.51984 | 9.27081 | 6000 ft | 157 kts | 234° |
| 2026-05-06 17:25 | 53.51342 | 9.25598 | 6002 ft | 157 kts | 234° |
| 2026-05-06 17:26 | 53.50700 | 9.24114 | 6002 ft | 157 kts | 234° |
| 2026-05-06 17:26 | 53.50065 | 9.22651 | 6000 ft | 157 kts | 235° |
| 2026-05-06 17:26 | 53.49415 | 9.21149 | 6003 ft | 157 kts | 234° |
| 2026-05-06 17:26 | 53.48770 | 9.19664 | 6005 ft | 158 kts | 234° |
| 2026-05-06 17:27 | 53.48122 | 9.18172 | 6003 ft | 158 kts | 234° |
| 2026-05-06 17:27 | 53.47485 | 9.16702 | 6001 ft | 158 kts | 234° |
| 2026-05-06 17:27 | 53.46837 | 9.15211 | 6002 ft | 158 kts | 234° |
| 2026-05-06 17:27 | 53.46189 | 9.13722 | 6004 ft | 158 kts | 234° |
| 2026-05-06 17:28 | 53.45540 | 9.12228 | 6003 ft | 158 kts | 234° |
| 2026-05-06 17:28 | 53.44889 | 9.10734 | 6004 ft | 159 kts | 234° |
| 2026-05-06 17:28 | 53.44234 | 9.09230 | 6007 ft | 160 kts | 234° |
| 2026-05-06 17:28 | 53.43576 | 9.07720 | 6001 ft | 160 kts | 234° |
| 2026-05-06 17:29 | 53.42918 | 9.06210 | 5999 ft | 160 kts | 234° |
| 2026-05-06 17:29 | 53.42260 | 9.04703 | 5999 ft | 160 kts | 234° |
| 2026-05-06 17:29 | 53.41603 | 9.03198 | 6001 ft | 160 kts | 234° |
| 2026-05-06 17:29 | 53.40944 | 9.01691 | 5999 ft | 160 kts | 234° |
| 2026-05-06 17:30 | 53.40287 | 9.00188 | 5999 ft | 160 kts | 234° |
| 2026-05-06 17:30 | 53.39630 | 8.98685 | 6000 ft | 160 kts | 234° |
| 2026-05-06 17:30 | 53.38974 | 8.97185 | 6003 ft | 160 kts | 234° |
| 2026-05-06 17:30 | 53.38316 | 8.95683 | 6003 ft | 160 kts | 234° |
| 2026-05-06 17:31 | 53.37658 | 8.94183 | 5999 ft | 160 kts | 234° |
| 2026-05-06 17:31 | 53.37000 | 8.92681 | 6001 ft | 160 kts | 234° |
| 2026-05-06 17:31 | 53.36342 | 8.91180 | 5999 ft | 160 kts | 234° |
| 2026-05-06 17:31 | 53.35665 | 8.89699 | 6000 ft | 160 kts | 231° |
| 2026-05-06 17:32 | 53.34971 | 8.88238 | 5930 ft | 165 kts | 232° |
| 2026-05-06 17:32 | 53.34729 | 8.87728 | 5901 ft | 166 kts | 231° |
| 2026-05-06 17:32 | 53.34283 | 8.86784 | 5857 ft | 167 kts | 231° |
| 2026-05-06 17:32 | 53.33546 | 8.85277 | 5781 ft | 168 kts | 230° |
| 2026-05-06 17:33 | 53.32795 | 8.83790 | 5704 ft | 167 kts | 229° |
| 2026-05-06 17:33 | 53.32044 | 8.82303 | 5629 ft | 168 kts | 230° |
| 2026-05-06 17:33 | 53.31292 | 8.80813 | 5553 ft | 168 kts | 230° |
| 2026-05-06 17:33 | 53.30538 | 8.79316 | 5478 ft | 169 kts | 230° |
| 2026-05-06 17:34 | 53.29782 | 8.77813 | 5404 ft | 169 kts | 230° |
| 2026-05-06 17:34 | 53.29025 | 8.76305 | 5325 ft | 169 kts | 230° |
| 2026-05-06 17:34 | 53.28265 | 8.74790 | 5210 ft | 171 kts | 230° |
| 2026-05-06 17:34 | 53.27502 | 8.73270 | 5085 ft | 171 kts | 229° |
| 2026-05-06 17:35 | 53.26743 | 8.71746 | 4958 ft | 171 kts | 230° |
| 2026-05-06 17:35 | 53.25982 | 8.70222 | 4825 ft | 171 kts | 229° |
| 2026-05-06 17:35 | 53.25223 | 8.68692 | 4708 ft | 171 kts | 230° |
| 2026-05-06 17:36 | 53.23701 | 8.65632 | 4448 ft | 172 kts | 229° |
| 2026-05-06 17:36 | 53.22936 | 8.64096 | 4320 ft | 172 kts | 230° |
| 2026-05-06 17:36 | 53.22167 | 8.62561 | 4186 ft | 173 kts | 229° |
| 2026-05-06 17:36 | 53.21397 | 8.61026 | 3935 ft | 170 kts | 230° |
| 2026-05-06 17:37 | 53.20648 | 8.59542 | 3672 ft | 166 kts | 230° |
| 2026-05-06 17:37 | 53.19907 | 8.58085 | 3411 ft | 164 kts | 230° |
| 2026-05-06 17:37 | 53.19166 | 8.56642 | 3160 ft | 164 kts | 229° |
| 2026-05-06 17:37 | 53.18412 | 8.55174 | 3000 ft | 165 kts | 230° |
| 2026-05-06 17:38 | 53.17677 | 8.53752 | 2997 ft | 161 kts | 230° |
| 2026-05-06 17:38 | 53.16948 | 8.52345 | 2994 ft | 160 kts | 230° |
| 2026-05-06 17:38 | 53.16218 | 8.50939 | 2994 ft | 160 kts | 229° |
| 2026-05-06 17:38 | 53.15490 | 8.49534 | 2997 ft | 160 kts | 229° |
| 2026-05-06 17:39 | 53.14762 | 8.48127 | 2994 ft | 160 kts | 229° |
| 2026-05-06 17:39 | 53.14037 | 8.46727 | 2997 ft | 159 kts | 230° |
| 2026-05-06 17:39 | 53.13310 | 8.45328 | 2997 ft | 160 kts | 229° |
| 2026-05-06 17:39 | 53.12579 | 8.43920 | 2995 ft | 161 kts | 229° |
| 2026-05-06 17:40 | 53.11846 | 8.42508 | 2997 ft | 161 kts | 229° |
| 2026-05-06 17:40 | 53.10898 | 8.41687 | 2990 ft | 155 kts | 180° |
| 2026-05-06 17:40 | 53.09827 | 8.41699 | 2991 ft | 154 kts | 174° |
| 2026-05-06 17:40 | 53.08760 | 8.41741 | 2985 ft | 151 kts | 169° |
| 2026-05-06 17:41 | 53.07924 | 8.42580 | 2989 ft | 139 kts | 122° |
| 2026-05-06 17:41 | 53.07322 | 8.43845 | 2990 ft | 140 kts | 123° |
| 2026-05-06 17:41 | 53.06695 | 8.45092 | 2998 ft | 141 kts | 123° |
| 2026-05-06 17:41 | 53.06066 | 8.46343 | 2997 ft | 141 kts | 123° |
| 2026-05-06 17:42 | 53.05445 | 8.47577 | 2998 ft | 141 kts | 123° |
| 2026-05-06 17:42 | 53.04805 | 8.48853 | 3002 ft | 142 kts | 123° |
| 2026-05-06 17:42 | 53.04288 | 8.50186 | 3001 ft | 138 kts | 102° |
| 2026-05-06 17:42 | 53.04175 | 8.51741 | 3003 ft | 136 kts | 87° |
| 2026-05-06 17:43 | 53.04160 | 8.53335 | 2936 ft | 142 kts | 85° |
| 2026-05-06 17:43 | 53.04177 | 8.55015 | 2751 ft | 148 kts | 85° |
| 2026-05-06 17:43 | 53.04201 | 8.56751 | 2546 ft | 152 kts | 84° |
| 2026-05-06 17:43 | 53.04240 | 8.58501 | 2332 ft | 148 kts | 84° |
| 2026-05-06 17:44 | 53.04276 | 8.60151 | 2139 ft | 122 kts | 83° |
| 2026-05-06 17:44 | 53.04309 | 8.61477 | 1971 ft | 124 kts | 82° |
| 2026-05-06 17:44 | 53.04341 | 8.62983 | 1802 ft | 135 kts | 84° |
| 2026-05-06 17:44 | 53.04377 | 8.64569 | 1620 ft | 140 kts | 83° |
| 2026-05-06 17:45 | 53.04415 | 8.66203 | 1420 ft | 144 kts | 84° |
| 2026-05-06 17:45 | 53.04450 | 8.67884 | 1215 ft | 148 kts | 84° |
| 2026-05-06 17:45 | 53.04474 | 8.69419 | 985 ft | 120 kts | 85° |
| 2026-05-06 17:45 | 53.04492 | 8.70761 | 844 ft | 120 kts | 84° |
| 2026-05-06 17:46 | 53.04534 | 8.72148 | 645 ft | 117 kts | 85° |
| 2026-05-06 17:46 | 53.04560 | 8.73526 | 544 ft | 118 kts | 84° |
| 2026-05-06 17:46 | 53.04593 | 8.74842 | 414 ft | 109 kts | 84° |
| 2026-05-06 17:46 | 53.04617 | 8.76013 | 228 ft | 95 kts | 81° |
| 2026-05-06 17:47 | 53.04648 | 8.77088 | 85 ft | 92 kts | 82° |
| 2026-05-06 17:47 | 53.04671 | 8.78015 | 18 ft | 67 kts | 84° |
| 2026-05-06 17:47 | 53.04676 | 8.78592 | 18 ft | 24 kts | 82° |
| 2026-05-06 17:47 | 53.04727 | 8.78649 | 16 ft | 10 kts | 11° |
| 2026-05-06 17:48 | 53.04795 | 8.78662 | 15 ft | 9 kts | 2° |
| 2026-05-06 17:48 | 53.04831 | 8.78628 | 15 ft | 7 kts | 310° |
| 2026-05-06 17:48 | 53.04848 | 8.78526 | 14 ft | 15 kts | 272° |
| 2026-05-06 17:48 | 53.04867 | 8.78356 | 16 ft | 14 kts | 313° |
| 2026-05-06 17:49 | 53.04936 | 8.78264 | 17 ft | 12 kts | 345° |
| 2026-05-06 17:49 | 53.05011 | 8.78218 | 16 ft | 12 kts | 319° |
| 2026-05-06 17:49 | 53.05040 | 8.78156 | 16 ft | 4 kts | 234° |
| 2026-05-06 17:49 | 53.05027 | 8.78125 | 16 ft | 0 kts | 41° |
| 2026-05-06 17:50 | 53.05027 | 8.78126 | 16 ft | 0 kts | 48° |